G.commander — DSQR5 — position and weather

sailwx.info

Track history (hours):
 
Tides and Currents Weather Stations Pressure Air Temp Water Temp Dewpoint Dewpoint Depression Visibility Wind Speed Wind Dir Waves Ship Positions

G.commander

Last reported at 2015-Jan-15 19:21 UTC. Time now 2015-Jan-25 14:15 UTC.
Position N 01°55' E 102°20'.
Warning: this ship's position is 9 days out of date.

Length 230 m; draft 7.3 m.

Type: Tanker. MMSI: 441681000.

Date/timePositionNaut miles runAvg speedWind from/ knotsBaromVisibWave heightAir tempDewpointWater temp
2015-Jan-15 19:21N 01°55' E 102°20'1215.0
2015-Jan-15 18:33N 01°49' E 102°30'9012.7
2015-Jan-15 11:28N 01°13' E 103°52'1516.4
2015-Jan-15 10:33N 01°16' E 104°07'  
2015-Jan-07 03:34N 34°51' E 139°38'1515.0
2015-Jan-07 02:33N 35°06' E 139°43'1111.3
2015-Jan-07 01:33N 35°17' E 139°45'1212.1
2015-Jan-07 00:33N 35°29' E 139°48'3 2.6
2015-Jan-06 23:33N 35°30' E 139°45'0 0.0
2015-Jan-06 22:33N 35°30' E 139°45'0 0.0
2015-Jan-06 21:33N 35°30' E 139°45'0 0.0
2015-Jan-06 20:33N 35°30' E 139°45'0 0.0
2015-Jan-06 19:33N 35°30' E 139°45'0 0.0
2015-Jan-06 18:33N 35°30' E 139°45'0 0.0
2015-Jan-06 17:33N 35°30' E 139°45'0 0.0
2015-Jan-06 16:33N 35°30' E 139°45'0 0.0
2015-Jan-06 15:30N 35°30' E 139°45'0 0.0
2015-Jan-06 14:33N 35°30' E 139°45'0 0.0
2015-Jan-06 13:27N 35°30' E 139°45'0 0.0
2015-Jan-06 12:33N 35°30' E 139°45'0 0.0
2015-Jan-06 11:33N 35°30' E 139°45'0 0.0
2015-Jan-06 10:33N 35°30' E 139°45'0 0.0
2015-Jan-06 09:33N 35°30' E 139°45'0 0.0
2015-Jan-06 08:33N 35°30' E 139°45'0 0.0
2015-Jan-06 07:30N 35°30' E 139°45'0 0.0
2015-Jan-06 06:33N 35°30' E 139°45'0 0.0
2015-Jan-06 05:33N 35°30' E 139°45'0 0.0
2015-Jan-06 04:33N 35°30' E 139°45'0 0.0
2015-Jan-06 03:33N 35°30' E 139°45'0 0.0
2015-Jan-06 02:33N 35°30' E 139°45'0 0.0
2015-Jan-06 01:33N 35°30' E 139°45'1 0.7
2015-Jan-06 00:33N 35°30' E 139°44'5 4.7
2015-Jan-05 23:33N 35°25' E 139°46'10 9.9
2015-Jan-05 22:33N 35°15' E 139°47'1110.5
2015-Jan-05 21:33N 35°05' E 139°45'1010.4
2015-Jan-05 20:33N 34°55' E 139°42'10 9.9
2015-Jan-05 19:33N 34°45' E 139°40'  
Track history (hours):
 
Tides and Currents Weather Stations Pressure Air Temp Water Temp Dewpoint Dewpoint Depression Visibility Wind Speed Wind Dir Waves Ship Positions

G.commander

Last reported at 2015-Jan-15 19:21 UTC. Time now 2015-Jan-25 14:15 UTC.
Position N 01°55' E 102°20'.
Warning: this ship's position is 9 days out of date.

Length 230 m; draft 7.3 m.

Type: Tanker. MMSI: 441681000.

Date/timePositionNaut miles runAvg speedWind from/ knotsBaromVisibWave heightAir tempDewpointWater temp
2015-Jan-15 19:21N 01°55' E 102°20'1215.0
2015-Jan-15 18:33N 01°49' E 102°30'9012.7
2015-Jan-15 11:28N 01°13' E 103°52'1516.4
2015-Jan-15 10:33N 01°16' E 104°07'  
2015-Jan-07 03:34N 34°51' E 139°38'1515.0
2015-Jan-07 02:33N 35°06' E 139°43'1111.3
2015-Jan-07 01:33N 35°17' E 139°45'1212.1
2015-Jan-07 00:33N 35°29' E 139°48'3 2.6
2015-Jan-06 23:33N 35°30' E 139°45'0 0.0
2015-Jan-06 22:33N 35°30' E 139°45'0 0.0
2015-Jan-06 21:33N 35°30' E 139°45'0 0.0
2015-Jan-06 20:33N 35°30' E 139°45'0 0.0
2015-Jan-06 19:33N 35°30' E 139°45'0 0.0
2015-Jan-06 18:33N 35°30' E 139°45'0 0.0
2015-Jan-06 17:33N 35°30' E 139°45'0 0.0
2015-Jan-06 16:33N 35°30' E 139°45'0 0.0
2015-Jan-06 15:30N 35°30' E 139°45'0 0.0
2015-Jan-06 14:33N 35°30' E 139°45'0 0.0
2015-Jan-06 13:27N 35°30' E 139°45'0 0.0
2015-Jan-06 12:33N 35°30' E 139°45'0 0.0
2015-Jan-06 11:33N 35°30' E 139°45'0 0.0
2015-Jan-06 10:33N 35°30' E 139°45'0 0.0
2015-Jan-06 09:33N 35°30' E 139°45'0 0.0
2015-Jan-06 08:33N 35°30' E 139°45'0 0.0
2015-Jan-06 07:30N 35°30' E 139°45'0 0.0
2015-Jan-06 06:33N 35°30' E 139°45'0 0.0
2015-Jan-06 05:33N 35°30' E 139°45'0 0.0
2015-Jan-06 04:33N 35°30' E 139°45'0 0.0
2015-Jan-06 03:33N 35°30' E 139°45'0 0.0
2015-Jan-06 02:33N 35°30' E 139°45'0 0.0
2015-Jan-06 01:33N 35°30' E 139°45'1 0.7
2015-Jan-06 00:33N 35°30' E 139°44'5 4.7
2015-Jan-05 23:33N 35°25' E 139°46'10 9.9
2015-Jan-05 22:33N 35°15' E 139°47'1110.5
2015-Jan-05 21:33N 35°05' E 139°45'1010.4
2015-Jan-05 20:33N 34°55' E 139°42'10 9.9
2015-Jan-05 19:33N 34°45' E 139°40'  

Dump ship's entire track history